Time;durP1;ratioP1;P1;durP2;ratioP2;P2;SDS_P1;SDS_P2;PMS_P1;PMS_P2;Temp;Humidity;BMP_temperature;BMP_pressure;BME280_temperature;BME280_humidity;BME280_pressure;Samples;Min_cycle;Max_cycle;Signal;HPM_P1;HPM_P2
2022/03/16 00:00:23;;;;;;;74.18;39.85;;;6.30;99.90;;;;;;5110640;28;20052;-80
2022/03/16 00:02:50;;;;;;;82.22;41.40;;;6.20;99.90;;;;;;5112037;28;20050;-81
2022/03/16 00:05:16;;;;;;;72.25;39.75;;;6.30;99.90;;;;;;5094204;28;20482;-80
2022/03/16 00:07:42;;;;;;;75.60;40.92;;;6.20;99.90;;;;;;5102020;28;20047;-80
2022/03/16 00:10:09;;;;;;;73.90;41.00;;;6.20;99.90;;;;;;5078452;28;20042;-80
2022/03/16 00:12:36;;;;;;;79.75;41.15;;;6.10;99.90;;;;;;5111274;28;20042;-81
2022/03/16 00:15:03;;;;;;;85.07;42.40;;;6.20;99.90;;;;;;5079227;28;20071;-79
2022/03/16 00:17:29;;;;;;;82.20;40.55;;;6.10;99.90;;;;;;5073743;28;20039;-79
2022/03/16 00:19:54;;;;;;;73.28;39.95;;;6.00;99.90;;;;;;5074179;28;20040;-80
2022/03/16 00:22:20;;;;;;;75.57;39.85;;;6.00;99.90;;;;;;5090776;28;20060;-81
2022/03/16 00:24:46;;;;;;;76.78;40.88;;;5.90;99.90;;;;;;5074339;28;20106;-81
2022/03/16 00:27:14;;;;;;;72.05;39.42;;;6.00;99.90;;;;;;5091316;28;20126;-78
2022/03/16 00:29:40;;;;;;;72.13;38.83;;;5.90;99.90;;;;;;5091054;28;20115;-78
2022/03/16 00:32:06;;;;;;;81.90;40.75;;;5.90;99.90;;;;;;5090574;28;20113;-79
2022/03/16 00:34:32;;;;;;;79.47;41.58;;;5.80;99.90;;;;;;5090993;28;20036;-80
2022/03/16 00:36:58;;;;;;;80.03;41.35;;;5.80;99.90;;;;;;5073870;28;20329;-78
2022/03/16 00:39:23;;;;;;;78.13;41.03;;;5.80;99.90;;;;;;5096858;28;20043;-78
2022/03/16 00:41:49;;;;;;;73.43;39.22;;;5.70;99.90;;;;;;5111378;28;20096;-78
2022/03/16 00:44:15;;;;;;;92.35;42.53;;;5.80;99.90;;;;;;5111078;28;20462;-79
2022/03/16 00:46:41;;;;;;;87.88;44.22;;;5.70;99.90;;;;;;5093661;28;20351;-79
2022/03/16 00:49:06;;;;;;;79.03;41.83;;;5.70;99.90;;;;;;5111024;28;20040;-78
2022/03/16 00:51:33;;;;;;;86.32;41.35;;;5.70;99.90;;;;;;5110829;28;20040;-81
2022/03/16 00:53:59;;;;;;;88.38;44.22;;;5.70;99.90;;;;;;5094015;28;20145;-78
2022/03/16 00:56:25;;;;;;;88.47;43.35;;;5.60;99.90;;;;;;5090724;28;20118;-81
2022/03/16 00:58:50;;;;;;;83.25;42.92;;;5.70;99.90;;;;;;5092080;28;20494;-79
2022/03/16 01:01:16;;;;;;;89.90;42.63;;;5.70;99.90;;;;;;5091367;28;20036;-77
2022/03/16 01:03:42;;;;;;;83.45;43.28;;;5.60;99.90;;;;;;5073775;28;20071;-78
2022/03/16 01:06:15;;;;;;;87.63;42.53;;;5.70;99.90;;;;;;5072873;28;20592;-81
2022/03/16 01:08:45;;;;;;;88.03;41.83;;;5.60;99.90;;;;;;5090373;28;20048;-77
2022/03/16 01:11:14;;;;;;;83.40;42.60;;;5.70;99.90;;;;;;5103732;28;20050;-78
2022/03/16 01:13:41;;;;;;;82.93;43.22;;;5.60;99.90;;;;;;5093730;28;20037;-78
2022/03/16 01:16:07;;;;;;;90.07;44.10;;;5.60;99.90;;;;;;5109803;28;20039;-79
2022/03/16 01:18:33;;;;;;;77.95;41.58;;;5.60;99.90;;;;;;5112007;28;20031;-79
2022/03/16 01:20:59;;;;;;;76.63;39.33;;;5.50;99.90;;;;;;5110282;28;20039;-79
2022/03/16 01:23:24;;;;;;;79.05;40.53;;;5.80;99.90;;;;;;5092485;28;20051;-80
2022/03/16 01:25:50;;;;;;;81.78;41.53;;;5.50;99.90;;;;;;5093357;28;20079;-78
2022/03/16 01:28:16;;;;;;;81.88;42.08;;;5.40;99.90;;;;;;5110469;28;20038;-81
2022/03/16 01:30:45;;;;;;;76.95;42.08;;;5.50;99.90;;;;;;5109489;28;20046;-80
2022/03/16 01:33:11;;;;;;;82.78;41.55;;;5.40;99.90;;;;;;5110337;28;20490;-79
2022/03/16 01:35:36;;;;;;;83.15;41.17;;;5.50;99.90;;;;;;5111652;28;20177;-79
2022/03/16 01:38:02;;;;;;;78.05;41.20;;;5.40;99.90;;;;;;5093204;28;20056;-79
2022/03/16 01:40:28;;;;;;;78.55;41.03;;;5.50;99.90;;;;;;5110085;28;20051;-80
2022/03/16 01:42:53;;;;;;;86.05;41.75;;;5.70;99.90;;;;;;5110564;28;20116;-78
2022/03/16 01:45:19;;;;;;;76.57;40.55;;;5.40;99.90;;;;;;5092650;28;20089;-80
2022/03/16 01:47:45;;;;;;;71.40;39.35;;;5.40;99.90;;;;;;5110699;28;20052;-80
2022/03/16 01:50:10;;;;;;;79.93;41.67;;;5.40;99.90;;;;;;5111868;28;20032;-79
2022/03/16 01:52:37;;;;;;;74.35;41.28;;;5.30;99.90;;;;;;5110443;28;20039;-80
2022/03/16 01:55:05;;;;;;;85.18;42.72;;;5.40;99.90;;;;;;5110308;28;20039;-80
2022/03/16 01:57:38;;;;;;;67.80;39.08;;;5.40;99.90;;;;;;5110376;28;20518;-81
2022/03/16 02:00:08;;;;;;;73.53;38.90;;;5.30;99.90;;;;;;5109817;28;20044;-80
2022/03/16 02:02:34;;;;;;;75.18;40.30;;;5.30;99.90;;;;;;5110707;28;20035;-80
2022/03/16 02:05:00;;;;;;;78.13;40.08;;;5.20;99.90;;;;;;5109839;28;20051;-78
2022/03/16 02:07:25;;;;;;;69.43;37.38;;;5.20;99.90;;;;;;5110121;28;20052;-79
2022/03/16 02:09:53;;;;;;;75.10;39.67;;;5.10;99.90;;;;;;5111922;28;20085;-79
2022/03/16 02:12:18;;;;;;;70.35;39.35;;;5.00;99.90;;;;;;5110310;28;20104;-81
2022/03/16 02:14:44;;;;;;;72.90;38.35;;;5.20;99.90;;;;;;5110175;28;20039;-81
2022/03/16 02:17:10;;;;;;;77.15;38.40;;;5.10;99.90;;;;;;5092280;28;20043;-78
2022/03/16 02:19:36;;;;;;;86.75;42.45;;;5.10;99.90;;;;;;5109984;28;20040;-78
2022/03/16 02:22:04;;;;;;;82.70;41.53;;;5.00;99.90;;;;;;5110081;28;20043;-80
2022/03/16 02:24:29;;;;;;;76.90;41.47;;;5.10;99.90;;;;;;5093285;28;20134;-80
2022/03/16 02:26:56;;;;;;;84.70;41.22;;;5.10;99.90;;;;;;5110199;28;20130;-79
2022/03/16 02:29:22;;;;;;;71.45;39.00;;;5.00;99.90;;;;;;5110145;28;20043;-79
2022/03/16 02:31:48;;;;;;;80.57;41.65;;;5.00;99.90;;;;;;5109295;28;20063;-81
2022/03/16 02:34:13;;;;;;;73.20;39.85;;;5.00;99.90;;;;;;5111930;28;20482;-78
2022/03/16 02:36:39;;;;;;;70.53;38.65;;;4.90;99.90;;;;;;5097919;28;20093;-81
2022/03/16 02:39:05;;;;;;;74.07;38.70;;;4.80;99.90;;;;;;5096738;28;20028;-80
2022/03/16 02:41:31;;;;;;;81.70;40.80;;;4.80;99.90;;;;;;5115206;28;20114;-80
2022/03/16 02:43:57;;;;;;;69.95;38.42;;;4.70;99.90;;;;;;5096557;28;20036;-79
2022/03/16 02:46:23;;;;;;;70.57;39.20;;;4.70;99.90;;;;;;5112788;28;20039;-79
2022/03/16 02:48:49;;;;;;;66.95;37.00;;;4.70;99.90;;;;;;5113850;28;20372;-79
2022/03/16 02:51:14;;;;;;;69.30;36.30;;;4.60;99.90;;;;;;5096591;28;20483;-81
2022/03/16 02:53:40;;;;;;;68.90;36.97;;;4.70;99.90;;;;;;5114023;28;20035;-77
2022/03/16 02:56:07;;;;;;;70.95;38.33;;;4.60;99.90;;;;;;5096515;28;20036;-80
2022/03/16 02:58:33;;;;;;;77.85;38.60;;;4.50;99.90;;;;;;5113982;28;20047;-78
2022/03/16 03:00:58;;;;;;;68.88;37.35;;;4.50;99.90;;;;;;5095592;28;20058;-78
2022/03/16 03:03:24;;;;;;;66.25;35.95;;;4.50;99.90;;;;;;5096436;28;20051;-78
2022/03/16 03:05:52;;;;;;;70.38;36.22;;;4.40;99.90;;;;;;5114643;28;20051;-79
2022/03/16 03:08:17;;;;;;;68.93;36.35;;;4.30;99.90;;;;;;5113210;28;20097;-79
2022/03/16 03:10:43;;;;;;;64.45;35.83;;;4.30;99.90;;;;;;5113549;28;20067;-81
2022/03/16 03:13:09;;;;;;;68.00;36.97;;;4.30;99.90;;;;;;5113402;28;20097;-81
2022/03/16 03:15:34;;;;;;;67.75;36.90;;;4.30;99.90;;;;;;5095650;28;20106;-81
2022/03/16 03:18:00;;;;;;;75.93;39.00;;;4.30;99.90;;;;;;5095998;28;20351;-78
2022/03/16 03:20:26;;;;;;;61.08;35.40;;;4.20;99.90;;;;;;5112949;28;20043;-81
2022/03/16 03:22:51;;;;;;;70.93;38.10;;;4.20;99.90;;;;;;5096022;28;20039;-79
2022/03/16 03:25:17;;;;;;;79.50;40.60;;;4.30;99.90;;;;;;5103246;28;20036;-78
2022/03/16 03:27:43;;;;;;;81.93;40.63;;;4.30;99.90;;;;;;5076192;28;20178;-78
2022/03/16 03:30:09;;;;;;;82.72;41.95;;;4.20;99.90;;;;;;5091769;28;20460;-79
2022/03/16 03:32:35;;;;;;;87.20;42.80;;;4.30;99.90;;;;;;5092551;28;20036;-81
2022/03/16 03:35:00;;;;;;;78.88;41.42;;;4.30;99.90;;;;;;5092178;28;20094;-79
2022/03/16 03:37:28;;;;;;;71.13;38.83;;;4.30;99.90;;;;;;5092192;28;20473;-77
2022/03/16 03:39:54;;;;;;;91.45;43.05;;;4.40;99.90;;;;;;5085069;28;20035;-81
2022/03/16 03:42:20;;;;;;;103.43;45.85;;;4.30;99.90;;;;;;5095611;28;20561;-78
2022/03/16 03:44:46;;;;;;;84.82;42.42;;;4.30;99.90;;;;;;5112488;28;20127;-81
2022/03/16 03:47:12;;;;;;;81.95;41.35;;;4.30;99.90;;;;;;5094182;28;20039;-80
2022/03/16 03:49:39;;;;;;;72.13;39.35;;;4.20;99.90;;;;;;5112466;28;20502;-79
2022/03/16 03:52:05;;;;;;;82.40;40.58;;;4.30;99.90;;;;;;5112243;28;20046;-79
2022/03/16 03:54:31;;;;;;;75.85;39.30;;;4.20;99.90;;;;;;5112297;28;20054;-79
2022/03/16 03:56:57;;;;;;;80.90;40.83;;;4.10;99.90;;;;;;5112112;28;20052;-79
2022/03/16 03:59:23;;;;;;;71.85;38.08;;;4.10;99.90;;;;;;5112320;28;20047;-80
2022/03/16 04:01:50;;;;;;;70.70;37.22;;;4.10;99.90;;;;;;5094736;28;20075;-79
2022/03/16 04:04:15;;;;;;;76.75;38.95;;;4.00;99.90;;;;;;5112177;28;20115;-80
2022/03/16 04:06:41;;;;;;;75.50;40.05;;;4.00;99.90;;;;;;5094761;28;20562;-79
2022/03/16 04:09:07;;;;;;;86.38;41.30;;;4.00;99.90;;;;;;5111915;28;20039;-81
2022/03/16 04:11:33;;;;;;;83.80;41.92;;;4.00;99.90;;;;;;5112040;28;20073;-78
2022/03/16 04:13:59;;;;;;;81.28;40.53;;;4.10;99.90;;;;;;5091610;28;20445;-78
2022/03/16 04:16:25;;;;;;;88.50;42.28;;;4.10;99.90;;;;;;5090517;28;20040;-81
2022/03/16 04:18:50;;;;;;;83.85;40.45;;;4.10;99.90;;;;;;5074464;28;20418;-81
2022/03/16 04:21:16;;;;;;;73.10;38.60;;;4.10;99.90;;;;;;5091420;28;20043;-78
2022/03/16 04:23:42;;;;;;;80.55;40.33;;;4.10;99.90;;;;;;5091524;28;20398;-79
2022/03/16 04:26:08;;;;;;;82.22;39.85;;;4.00;99.90;;;;;;5107222;28;20044;-79
2022/03/16 04:28:34;;;;;;;91.45;43.92;;;4.00;99.90;;;;;;5111656;28;20520;-78
2022/03/16 04:31:00;;;;;;;95.45;44.05;;;4.10;99.90;;;;;;5093651;28;20032;-81
2022/03/16 04:33:30;;;;;;;88.25;42.65;;;4.10;99.90;;;;;;5111746;28;20158;-79
2022/03/16 04:35:55;;;;;;;83.00;41.15;;;4.00;99.90;;;;;;5111580;28;20122;-79
2022/03/16 04:38:21;;;;;;;103.05;43.65;;;4.10;99.90;;;;;;5111203;28;20499;-79
2022/03/16 04:40:47;;;;;;;93.47;43.92;;;4.00;99.90;;;;;;5110885;28;20122;-81
2022/03/16 04:43:13;;;;;;;78.93;41.30;;;4.10;99.90;;;;;;5094580;28;20039;-79
2022/03/16 04:45:40;;;;;;;106.60;45.50;;;4.00;99.90;;;;;;5110650;28;20039;-79
2022/03/16 04:48:11;;;;;;;88.18;42.75;;;4.10;99.90;;;;;;5111109;28;20035;-81
2022/03/16 04:50:37;;;;;;;89.57;43.15;;;4.10;99.90;;;;;;5094368;28;20063;-78
2022/03/16 04:53:03;;;;;;;97.10;44.00;;;4.10;99.90;;;;;;5094299;28;20047;-81
2022/03/16 04:55:29;;;;;;;87.65;41.72;;;4.20;99.90;;;;;;5110993;28;20043;-79
2022/03/16 04:57:55;;;;;;;96.00;43.55;;;4.10;99.90;;;;;;5110200;28;20036;-79
2022/03/16 05:00:21;;;;;;;85.38;41.80;;;4.20;99.90;;;;;;5110225;28;20043;-79
2022/03/16 05:02:47;;;;;;;85.68;41.97;;;4.20;99.90;;;;;;5111418;28;20421;-79
2022/03/16 05:05:13;;;;;;;101.68;43.63;;;4.20;99.90;;;;;;5110440;28;20051;-81
2022/03/16 05:07:40;;;;;;;87.95;43.08;;;4.10;99.90;;;;;;5111193;28;20055;-80
2022/03/16 05:10:07;;;;;;;90.85;42.65;;;4.10;99.90;;;;;;5110922;28;20136;-79
2022/03/16 05:12:40;;;;;;;94.82;42.58;;;4.10;99.90;;;;;;5111072;28;20047;-80
2022/03/16 05:15:14;;;;;;;96.93;43.00;;;4.10;99.90;;;;;;5110344;28;20046;-79
2022/03/16 05:17:39;;;;;;;108.78;46.10;;;4.70;99.90;;;;;;5111368;28;20385;-78
2022/03/16 05:20:06;;;;;;;122.88;46.92;;;4.20;99.90;;;;;;5093419;28;20052;-80
2022/03/16 05:22:43;;;;;;;113.72;46.22;;;4.20;99.90;;;;;;5110817;28;20518;-79
2022/03/16 05:25:10;;;;;;;118.40;46.45;;;4.20;99.90;;;;;;5110507;28;20094;-78
2022/03/16 05:27:36;;;;;;;97.72;42.55;;;4.20;99.90;;;;;;5094335;28;20417;-82
2022/03/16 05:30:03;;;;;;;109.55;44.60;;;4.20;99.90;;;;;;5093490;28;20114;-80
2022/03/16 05:32:31;;;;;;;96.50;42.90;;;4.10;99.90;;;;;;5110955;28;20083;-78
2022/03/16 05:34:56;;;;;;;101.95;44.20;;;4.20;99.90;;;;;;5093828;28;20039;-80
2022/03/16 05:37:22;;;;;;;94.38;44.72;;;4.20;99.90;;;;;;5093691;28;20521;-81
2022/03/16 05:39:48;;;;;;;108.72;47.80;;;4.20;99.90;;;;;;5110717;28;20044;-78
2022/03/16 05:42:13;;;;;;;103.88;46.08;;;4.30;99.90;;;;;;5093493;28;20035;-78
2022/03/16 05:44:39;;;;;;;92.88;44.63;;;4.30;99.90;;;;;;5093644;28;20040;-79
2022/03/16 05:47:05;;;;;;;98.13;45.22;;;4.30;99.90;;;;;;5109735;28;20036;-79
2022/03/16 05:49:31;;;;;;;108.03;45.28;;;4.30;99.90;;;;;;5110933;28;20507;-79
2022/03/16 05:51:56;;;;;;;117.75;46.60;;;4.40;99.90;;;;;;5110545;28;20039;-80
2022/03/16 05:54:22;;;;;;;100.22;45.30;;;4.30;99.90;;;;;;5107174;28;20051;-78
2022/03/16 05:56:47;;;;;;;107.30;46.00;;;4.40;99.90;;;;;;5090124;28;20494;-79
2022/03/16 05:59:13;;;;;;;100.53;45.40;;;4.40;99.90;;;;;;5074578;28;20046;-81
2022/03/16 06:01:39;;;;;;;104.10;44.40;;;4.40;99.90;;;;;;5090482;28;20043;-79
2022/03/16 06:04:05;;;;;;;116.85;47.03;;;4.40;99.90;;;;;;5093634;28;20047;-79
2022/03/16 06:06:31;;;;;;;109.55;45.97;;;4.50;99.90;;;;;;5093733;28;20072;-78
2022/03/16 06:08:57;;;;;;;111.82;44.95;;;4.50;99.90;;;;;;5095759;28;20044;-80
2022/03/16 06:11:24;;;;;;;92.93;44.85;;;4.60;99.90;;;;;;5099738;28;20036;-78
2022/03/16 06:13:50;;;;;;;91.20;43.38;;;4.60;99.90;;;;;;5099235;28;20142;-79
2022/03/16 06:16:15;;;;;;;91.25;44.30;;;4.60;99.90;;;;;;5097109;28;20112;-78
2022/03/16 06:18:41;;;;;;;83.70;42.47;;;4.60;99.90;;;;;;5076708;28;20067;-79
2022/03/16 06:21:07;;;;;;;91.57;43.30;;;4.70;99.90;;;;;;5110393;28;20055;-81
2022/03/16 06:23:34;;;;;;;84.60;42.50;;;4.70;99.90;;;;;;5093970;28;20094;-79
2022/03/16 06:26:01;;;;;;;85.07;42.90;;;4.80;99.90;;;;;;5093567;28;20461;-78
2022/03/16 06:28:27;;;;;;;81.90;42.88;;;4.80;99.90;;;;;;5093991;28;20066;-79
2022/03/16 06:30:52;;;;;;;79.05;41.55;;;4.90;99.90;;;;;;5092553;28;20479;-79
2022/03/16 06:33:18;;;;;;;77.85;38.78;;;5.00;99.90;;;;;;5093380;28;20120;-81
2022/03/16 06:35:44;;;;;;;76.22;40.88;;;4.90;99.90;;;;;;5094930;28;20109;-80
2022/03/16 06:38:11;;;;;;;75.45;40.80;;;5.10;99.90;;;;;;5093155;28;20471;-80
2022/03/16 06:40:37;;;;;;;78.75;40.30;;;5.10;99.90;;;;;;5091831;28;20134;-81
2022/03/16 06:43:02;;;;;;;77.15;40.08;;;5.10;99.90;;;;;;5113588;28;20131;-79
2022/03/16 06:45:29;;;;;;;72.97;38.33;;;5.10;99.90;;;;;;5112779;28;20533;-80
2022/03/16 06:47:56;;;;;;;81.47;41.15;;;5.20;99.90;;;;;;5096751;28;20371;-80
2022/03/16 06:50:22;;;;;;;82.95;40.30;;;5.20;99.90;;;;;;5096580;28;20038;-80
2022/03/16 06:52:48;;;;;;;82.90;41.83;;;5.20;99.90;;;;;;5113880;28;20582;-81
2022/03/16 06:55:13;;;;;;;81.88;41.33;;;5.30;99.90;;;;;;5113143;28;20078;-80
2022/03/16 06:57:39;;;;;;;83.10;41.75;;;5.20;99.90;;;;;;5113319;28;20040;-79
2022/03/16 07:00:08;;;;;;;78.35;40.97;;;5.30;99.90;;;;;;5095894;28;20040;-81
2022/03/16 07:02:59;;;;;;;82.07;41.38;;;5.40;99.90;;;;;;5114979;28;20044;-80
2022/03/16 07:05:28;;;;;;;74.47;40.35;;;5.40;99.90;;;;;;5095813;28;20051;-81
2022/03/16 07:07:56;;;;;;;78.32;41.28;;;5.40;99.90;;;;;;5113228;28;20092;-81
2022/03/16 07:10:22;;;;;;;75.63;38.53;;;5.50;99.90;;;;;;5113079;28;20040;-79
2022/03/16 07:12:47;;;;;;;68.45;38.40;;;5.40;99.90;;;;;;5096277;28;20123;-79
2022/03/16 07:15:13;;;;;;;70.13;38.88;;;5.40;99.90;;;;;;5091579;28;20112;-82
2022/03/16 07:17:39;;;;;;;71.05;38.65;;;5.50;99.90;;;;;;5075822;28;20044;-80
2022/03/16 07:20:06;;;;;;;72.95;38.30;;;5.60;99.90;;;;;;5092194;28;20044;-79
2022/03/16 07:22:34;;;;;;;73.10;37.88;;;5.60;99.90;;;;;;5091541;28;20055;-80
2022/03/16 07:25:01;;;;;;;79.03;40.05;;;5.60;99.90;;;;;;5092369;28;20093;-80
2022/03/16 07:27:26;;;;;;;65.65;37.25;;;5.70;99.90;;;;;;5092926;28;20119;-79
2022/03/16 07:29:52;;;;;;;61.78;35.53;;;5.80;99.90;;;;;;5075139;28;20931;-79
2022/03/16 07:32:17;;;;;;;72.50;37.90;;;5.80;99.90;;;;;;5092051;28;20405;-81
2022/03/16 07:34:43;;;;;;;62.67;35.13;;;5.80;99.90;;;;;;5093667;28;20205;-80
2022/03/16 07:37:09;;;;;;;70.80;37.13;;;5.80;99.90;;;;;;5075275;28;20040;-81
2022/03/16 07:39:35;;;;;;;64.03;37.28;;;6.10;99.90;;;;;;5099485;28;20054;-81
2022/03/16 07:42:01;;;;;;;68.05;37.00;;;6.10;99.90;;;;;;5095338;28;20043;-82
2022/03/16 07:44:26;;;;;;;63.65;37.40;;;6.00;99.90;;;;;;5112356;28;20044;-81
2022/03/16 07:46:52;;;;;;;64.93;35.95;;;6.20;99.90;;;;;;5111763;28;20079;-79
2022/03/16 07:49:36;;;;;;;66.63;38.00;;;6.20;99.90;;;;;;5113864;28;20039;-79
2022/03/16 07:52:02;;;;;;;71.25;35.72;;;6.40;99.90;;;;;;5112058;28;20040;-79
2022/03/16 07:54:27;;;;;;;64.70;36.67;;;6.40;99.90;;;;;;5094922;28;20040;-81
2022/03/16 07:56:53;;;;;;;59.40;35.22;;;6.40;99.90;;;;;;5075177;28;20035;-82
2022/03/16 07:59:19;;;;;;;66.22;37.40;;;6.60;99.90;;;;;;5075119;28;20551;-81
2022/03/16 08:01:45;;;;;;;56.58;35.45;;;6.60;99.90;;;;;;5074003;28;20040;-82
2022/03/16 08:04:11;;;;;;;61.10;36.13;;;6.70;99.90;;;;;;5074928;28;20055;-82
2022/03/16 08:06:37;;;;;;;65.93;35.28;;;6.80;99.90;;;;;;5074304;28;20052;-80
2022/03/16 08:09:02;;;;;;;53.42;29.48;;;6.90;99.90;;;;;;5091647;28;20040;-81
2022/03/16 08:11:28;;;;;;;58.03;34.53;;;7.00;99.90;;;;;;5092469;28;20040;-79
2022/03/16 08:13:54;;;;;;;60.30;35.40;;;7.10;99.90;;;;;;5100858;28;20024;-77
2022/03/16 08:16:19;;;;;;;56.72;33.85;;;7.10;99.90;;;;;;5135837;28;20028;-79
2022/03/16 08:18:45;;;;;;;53.25;32.20;;;7.20;99.90;;;;;;5136806;28;20056;-80
2022/03/16 08:21:11;;;;;;;57.40;33.92;;;7.10;99.90;;;;;;5119117;28;20047;-79
2022/03/16 08:23:38;;;;;;;57.55;32.78;;;7.40;99.90;;;;;;5117532;28;20031;-79
2022/03/16 08:26:04;;;;;;;52.10;32.25;;;7.20;99.90;;;;;;5113903;28;20112;-79
2022/03/16 08:28:29;;;;;;;56.22;32.78;;;7.40;99.90;;;;;;5114313;28;20043;-79
2022/03/16 08:30:55;;;;;;;50.72;31.67;;;7.40;99.90;;;;;;5110742;28;20035;-80
2022/03/16 08:33:23;;;;;;;52.30;31.45;;;7.50;99.90;;;;;;5112697;28;20047;-78
2022/03/16 08:35:50;;;;;;;49.47;28.95;;;7.60;99.90;;;;;;5112538;28;20142;-79
2022/03/16 08:38:16;;;;;;;49.67;31.05;;;7.70;99.90;;;;;;5111721;28;20039;-80
2022/03/16 08:40:41;;;;;;;50.05;30.67;;;7.70;99.90;;;;;;5111236;28;20486;-82
2022/03/16 08:43:08;;;;;;;49.92;30.83;;;7.90;99.90;;;;;;5098572;28;20040;-80
2022/03/16 08:45:34;;;;;;;45.78;29.50;;;7.80;99.90;;;;;;5073218;28;20348;-79
2022/03/16 08:47:59;;;;;;;49.05;29.85;;;8.00;99.90;;;;;;5090803;28;20040;-82
2022/03/16 08:50:25;;;;;;;45.67;28.63;;;8.00;99.90;;;;;;5092303;28;20044;-79
2022/03/16 08:52:51;;;;;;;41.63;27.77;;;8.20;99.90;;;;;;5090647;28;20051;-81
2022/03/16 08:55:17;;;;;;;45.33;28.55;;;8.10;99.90;;;;;;5090506;28;20044;-80
2022/03/16 08:57:45;;;;;;;41.60;27.95;;;8.10;99.90;;;;;;5091042;28;20193;-80
2022/03/16 09:00:15;;;;;;;45.00;27.80;;;8.20;99.90;;;;;;5089679;28;20055;-82
2022/03/16 09:02:44;;;;;;;46.22;28.23;;;8.30;99.90;;;;;;5074071;28;20043;-81
2022/03/16 09:05:10;;;;;;;42.10;26.65;;;8.30;99.90;;;;;;5073155;28;20039;-81
2022/03/16 09:07:38;;;;;;;46.78;28.73;;;8.40;99.90;;;;;;5073622;28;20059;-79
2022/03/16 09:10:05;;;;;;;47.08;27.88;;;8.50;99.90;;;;;;5090610;28;20067;-81
2022/03/16 09:12:31;;;;;;;44.70;27.35;;;8.50;99.90;;;;;;5090641;28;20135;-79
2022/03/16 09:14:57;;;;;;;46.10;26.98;;;8.70;99.90;;;;;;5090166;28;20120;-79
2022/03/16 09:17:22;;;;;;;45.72;26.95;;;8.70;99.90;;;;;;5090041;28;20040;-80
2022/03/16 09:19:48;;;;;;;45.95;24.13;;;8.80;99.90;;;;;;5090118;28;20094;-78
2022/03/16 09:22:14;;;;;;;49.70;29.10;;;8.90;99.90;;;;;;5073615;28;20081;-80
2022/03/16 09:24:40;;;;;;;51.42;29.63;;;9.00;99.90;;;;;;5090382;28;20110;-82
2022/03/16 09:27:07;;;;;;;53.20;31.80;;;9.50;99.90;;;;;;5090441;28;20521;-78
2022/03/16 09:29:32;;;;;;;57.05;31.80;;;9.40;99.90;;;;;;5090454;28;20036;-79
2022/03/16 09:31:58;;;;;;;54.65;32.78;;;9.40;99.90;;;;;;5072273;28;20130;-78
2022/03/16 09:34:24;;;;;;;48.05;29.58;;;9.50;99.90;;;;;;5089992;28;20040;-80
2022/03/16 09:36:49;;;;;;;45.75;28.75;;;9.50;99.90;;;;;;5090318;28;20040;-78
2022/03/16 09:39:15;;;;;;;46.60;28.17;;;9.70;99.90;;;;;;5094978;28;20032;-77
2022/03/16 09:41:41;;;;;;;46.10;27.52;;;9.70;99.90;;;;;;5093712;28;20080;-81
2022/03/16 09:44:07;;;;;;;49.95;28.60;;;9.80;99.90;;;;;;5093286;28;20054;-77
2022/03/16 09:46:35;;;;;;;42.08;26.30;;;10.00;99.90;;;;;;5096685;28;20058;-78
2022/03/16 09:49:01;;;;;;;43.00;25.77;;;10.20;99.90;;;;;;5114392;28;20039;-80
2022/03/16 09:51:29;;;;;;;37.05;23.40;;;10.30;99.90;;;;;;5114290;28;20042;-80
2022/03/16 09:53:54;;;;;;;37.33;22.10;;;10.40;99.90;;;;;;5114471;28;20160;-80
2022/03/16 09:56:20;;;;;;;36.53;23.52;;;10.50;99.90;;;;;;5114635;28;20088;-79
2022/03/16 09:58:46;;;;;;;34.38;21.95;;;10.50;99.90;;;;;;5097690;28;20043;-79
2022/03/16 10:01:12;;;;;;;30.83;21.08;;;10.60;99.90;;;;;;5113908;28;20043;-79
2022/03/16 10:03:38;;;;;;;31.83;20.23;;;10.70;99.90;;;;;;5108885;28;20406;-81
2022/03/16 10:06:08;;;;;;;33.35;20.17;;;10.80;99.90;;;;;;5059784;28;20092;-78
2022/03/16 10:08:36;;;;;;;32.95;21.08;;;10.80;99.90;;;;;;5077117;28;20047;-80
2022/03/16 10:14:11;;;;;;;40.20;21.63;;;11.10;99.90;;;;;;5097432;28;20079;-80
2022/03/16 10:19:23;;;;;;;30.05;19.05;;;11.20;99.90;;;;;;5114531;28;20443;-78
2022/03/16 10:22:04;;;;;;;26.98;18.23;;;11.50;99.90;;;;;;5097125;28;20043;-78
2022/03/16 10:24:30;;;;;;;26.95;16.00;;;11.50;99.90;;;;;;5097342;28;20062;-79
2022/03/16 10:26:59;;;;;;;26.08;16.08;;;11.60;99.90;;;;;;5114013;28;20487;-81
2022/03/16 10:29:31;;;;;;;23.20;15.98;;;11.70;99.90;;;;;;5114457;28;20040;-80
2022/03/16 10:32:04;;;;;;;25.90;16.67;;;11.90;99.90;;;;;;5096230;28;20518;-81
2022/03/16 10:34:31;;;;;;;22.58;14.65;;;12.20;99.90;;;;;;5113875;28;20569;-82
2022/03/16 10:36:59;;;;;;;26.02;15.98;;;12.10;99.90;;;;;;5113713;28;20071;-79
2022/03/16 10:39:37;;;;;;;25.75;16.38;;;12.20;99.90;;;;;;5113974;28;20032;-81
2022/03/16 10:47:56;;;;;;;24.17;15.38;;;12.60;99.90;;;;;;5113417;28;20062;-79
2022/03/16 10:50:22;;;;;;;19.65;14.57;;;12.60;99.90;;;;;;5113542;28;20077;-79
2022/03/16 10:52:50;;;;;;;19.35;14.20;;;12.60;99.90;;;;;;5110596;28;20131;-79
2022/03/16 10:55:19;;;;;;;20.02;14.55;;;12.60;99.90;;;;;;5096044;28;20131;-80
2022/03/16 10:57:48;;;;;;;21.50;15.07;;;12.60;99.90;;;;;;5087761;28;20040;-79
2022/03/16 11:00:16;;;;;;;24.08;15.10;;;12.90;99.90;;;;;;5090306;28;20364;-79
2022/03/16 11:02:45;;;;;;;19.67;12.40;;;13.00;99.90;;;;;;5090055;28;20043;-79
2022/03/16 11:05:11;;;;;;;14.13;11.40;;;13.10;99.90;;;;;;5095371;28;20048;-81
2022/03/16 11:07:38;;;;;;;15.77;11.35;;;13.30;99.90;;;;;;5093334;28;20555;-81
2022/03/16 11:10:06;;;;;;;15.82;11.02;;;13.40;99.90;;;;;;5093437;28;20114;-82
2022/03/16 11:15:19;;;;;;;18.73;12.00;;;13.70;99.90;;;;;;5105403;28;20531;-80
2022/03/16 11:17:48;;;;;;;16.88;11.77;;;13.80;99.90;;;;;;5115055;28;20062;-81
2022/03/16 11:20:14;;;;;;;18.48;12.32;;;14.00;99.90;;;;;;5113502;28;20047;-82
2022/03/16 11:26:12;;;;;;;16.48;12.45;;;14.00;99.90;;;;;;5113203;28;20054;-82
2022/03/16 11:28:56;;;;;;;17.25;12.88;;;14.10;99.90;;;;;;5113492;28;20044;-81
2022/03/16 11:31:29;;;;;;;16.48;12.15;;;14.20;99.90;;;;;;5095538;28;20043;-82
2022/03/16 11:33:57;;;;;;;19.60;13.52;;;14.30;99.90;;;;;;5096624;28;20040;-82
2022/03/16 11:36:40;;;;;;;16.08;12.32;;;14.30;99.90;;;;;;5096100;28;20118;-82
2022/03/16 11:39:22;;;;;;;21.27;13.55;;;14.40;99.90;;;;;;5112879;28;20130;-81
2022/03/16 11:41:50;;;;;;;20.77;13.60;;;14.50;99.90;;;;;;5093872;28;20040;-80
2022/03/16 11:44:28;;;;;;;20.52;14.02;;;14.50;99.90;;;;;;5075670;28;20036;-81
2022/03/16 11:47:15;;;;;;;20.02;12.18;;;14.60;99.90;;;;;;5074343;28;20051;-82
2022/03/16 11:49:45;;;;;;;15.07;11.57;;;14.70;99.90;;;;;;5091760;28;20127;-82
2022/03/16 11:52:12;;;;;;;16.58;12.45;;;14.90;99.90;;;;;;5075137;28;20127;-80
2022/03/16 11:54:51;;;;;;;19.92;12.18;;;14.90;99.90;;;;;;5075340;28;20107;-81
2022/03/16 11:57:49;;;;;;;20.15;12.20;;;15.00;99.90;;;;;;5091913;28;20371;-81
2022/03/16 12:00:16;;;;;;;25.35;13.38;;;15.50;99.90;;;;;;5073873;28;20040;-81
2022/03/16 12:02:42;;;;;;;17.83;12.40;;;15.70;99.90;;;;;;5092072;28;20051;-79
2022/03/16 12:05:14;;;;;;;18.73;12.30;;;15.50;99.90;;;;;;5058156;28;20036;-80
2022/03/16 12:07:40;;;;;;;18.52;12.43;;;15.80;99.90;;;;;;5091442;28;20048;-82
2022/03/16 12:10:15;;;;;;;16.23;12.65;;;16.10;99.90;;;;;;5092101;28;20047;-80
2022/03/16 12:12:51;;;;;;;17.65;12.20;;;15.90;99.90;;;;;;5091820;28;20063;-82
2022/03/16 12:15:30;;;;;;;17.58;12.80;;;16.00;99.90;;;;;;5086763;28;20047;-80
2022/03/16 12:17:56;;;;;;;16.73;12.20;;;16.00;99.90;;;;;;5112078;28;20052;-80
2022/03/16 12:20:32;;;;;;;15.52;11.27;;;16.10;99.90;;;;;;5094685;28;20065;-80
2022/03/16 12:23:05;;;;;;;16.80;12.15;;;16.20;99.90;;;;;;5113450;28;20051;-81
2022/03/16 12:25:33;;;;;;;16.98;11.20;;;16.30;99.90;;;;;;5111568;28;20042;-81
2022/03/16 12:30:51;;;;;;;13.60;10.55;;;16.30;99.90;;;;;;5110570;28;20489;-81
2022/03/16 12:33:25;;;;;;;15.07;11.48;;;16.30;99.90;;;;;;5113086;27;20093;-80
2022/03/16 12:35:59;;;;;;;15.85;11.48;;;16.60;99.90;;;;;;5111593;28;20122;-79
2022/03/16 12:38:32;;;;;;;15.55;10.45;;;16.60;99.90;;;;;;5113224;28;20035;-80
2022/03/16 12:43:48;;;;;;;16.90;11.27;;;16.80;99.90;;;;;;5111871;28;20074;-79
2022/03/16 12:46:32;;;;;;;15.48;11.05;;;16.90;99.90;;;;;;5110522;28;20067;-80
2022/03/16 12:49:02;;;;;;;16.73;10.75;;;16.90;99.80;;;;;;5112914;28;20399;-82
2022/03/16 12:51:38;;;;;;;16.58;11.35;;;17.00;99.90;;;;;;5094141;28;20039;-81
2022/03/16 12:54:07;;;;;;;18.80;11.70;;;16.90;99.90;;;;;;5111585;28;20047;-81
2022/03/16 12:56:44;;;;;;;15.95;11.70;;;17.20;99.90;;;;;;5111256;28;20402;-79